createdAt,value
2023-08-29T00:00:21.539Z,0.70
2023-08-29T00:03:09.188Z,0.60
2023-08-29T00:06:06.882Z,0.60
2023-08-29T00:08:54.358Z,0.70
2023-08-29T00:11:41.855Z,0.60
2023-08-29T00:14:29.344Z,0.70
2023-08-29T00:17:17.498Z,0.77
2023-08-29T00:20:05.579Z,0.67
2023-08-29T00:22:53.050Z,1.03
2023-08-29T00:25:41.539Z,0.70
2023-08-29T00:28:29.070Z,0.60
2023-08-29T00:31:16.632Z,0.80
2023-08-29T00:34:04.190Z,0.67
2023-08-29T00:36:53.139Z,0.87
2023-08-29T00:39:40.864Z,0.80
2023-08-29T00:42:28.383Z,0.80
2023-08-29T00:45:16.024Z,1.20
2023-08-29T00:48:05.698Z,1.23
2023-08-29T00:50:54.003Z,0.77
2023-08-29T00:53:42.535Z,0.97
2023-08-29T00:56:30.483Z,0.60
2023-08-29T00:59:18.301Z,1.10
2023-08-29T01:02:06.257Z,0.70
2023-08-29T01:04:54.323Z,0.60
2023-08-29T01:07:41.966Z,0.70
2023-08-29T01:10:43.939Z,0.70
2023-08-29T01:13:51.952Z,0.53
2023-08-29T01:17:10.329Z,0.80
2023-08-29T01:19:59.753Z,0.50
2023-08-29T01:23:18.268Z,0.70
2023-08-29T01:26:16.808Z,0.60
2023-08-29T01:29:05.450Z,0.70
2023-08-29T01:31:53.179Z,0.77
2023-08-29T01:34:43.327Z,0.90
2023-08-29T01:37:30.805Z,1.30
2023-08-29T01:40:18.437Z,1.03
2023-08-29T01:43:06.489Z,0.90
2023-08-29T01:45:54.055Z,0.90
2023-08-29T01:48:42.495Z,0.80
2023-08-29T01:51:30.821Z,0.90
2023-08-29T01:54:18.446Z,0.70
2023-08-29T01:57:10.331Z,1.00
2023-08-29T01:59:59.269Z,0.70
2023-08-29T02:02:46.857Z,0.90
2023-08-29T02:05:34.308Z,0.90
2023-08-29T02:08:21.901Z,1.17
2023-08-29T02:11:09.587Z,1.17
2023-08-29T02:13:57.192Z,1.00
2023-08-29T02:16:44.749Z,1.10
2023-08-29T02:19:32.700Z,0.97
2023-08-29T02:22:20.171Z,1.00
2023-08-29T02:25:09.118Z,1.70
2023-08-29T02:27:56.680Z,0.90
2023-08-29T02:30:44.243Z,0.80
2023-08-29T02:33:32.158Z,1.10
2023-08-29T02:36:19.707Z,0.70
2023-08-29T02:39:08.797Z,0.70
2023-08-29T02:41:56.439Z,0.70
2023-08-29T02:44:44.261Z,0.87
2023-08-29T02:47:31.863Z,0.73
2023-08-29T02:50:19.375Z,0.80
2023-08-29T02:53:06.985Z,0.90
2023-08-29T02:55:55.126Z,0.60
2023-08-29T02:58:43.337Z,0.70
2023-08-29T03:01:30.894Z,0.70
2023-08-29T03:04:18.450Z,1.00
2023-08-29T03:07:06.766Z,0.50
2023-08-29T03:09:54.256Z,0.70
2023-08-29T03:12:41.812Z,0.60
2023-08-29T03:15:34.317Z,0.60
2023-08-29T03:18:21.923Z,0.70
2023-08-29T03:21:10.009Z,0.70
2023-08-29T03:23:57.472Z,0.80
2023-08-29T03:26:45.022Z,0.67
2023-08-29T03:29:32.966Z,0.57
2023-08-29T03:32:20.426Z,0.77
2023-08-29T03:35:08.861Z,0.90
2023-08-29T03:38:00.270Z,0.70
2023-08-29T03:40:55.934Z,0.70
2023-08-29T03:43:43.473Z,0.97
2023-08-29T03:46:31.122Z,0.80
2023-08-29T03:49:18.674Z,0.70
2023-08-29T03:52:06.398Z,1.00
2023-08-29T03:54:55.404Z,0.60
2023-08-29T03:57:42.954Z,0.53
2023-08-29T04:00:30.533Z,0.70
2023-08-29T04:03:18.715Z,1.10
2023-08-29T04:06:06.329Z,0.70
2023-08-29T04:08:55.770Z,0.70
2023-08-29T04:11:43.215Z,0.80
2023-08-29T04:14:30.799Z,0.90
2023-08-29T04:17:18.305Z,1.10
2023-08-29T04:20:10.389Z,0.90
2023-08-29T04:22:59.338Z,0.90
2023-08-29T04:25:46.826Z,0.90
2023-08-29T04:28:34.436Z,0.83
2023-08-29T04:31:22.420Z,0.93
2023-08-29T04:34:10.007Z,0.80
2023-08-29T04:36:57.560Z,0.90
2023-08-29T04:39:45.548Z,0.70
2023-08-29T04:42:38.352Z,0.70
2023-08-29T04:45:25.890Z,0.70
2023-08-29T04:48:14.610Z,0.90
2023-08-29T04:51:05.453Z,0.67
2023-08-29T04:53:53.030Z,0.70
2023-08-29T04:56:40.570Z,0.70
2023-08-29T04:59:28.021Z,0.83
2023-08-29T05:02:15.979Z,0.70
2023-08-29T05:05:04.165Z,0.73
2023-08-29T05:07:51.685Z,0.60
2023-08-29T05:10:39.194Z,0.80
2023-08-29T05:13:26.640Z,1.13
2023-08-29T05:16:14.200Z,0.93
2023-08-29T05:19:01.679Z,0.93
2023-08-29T05:21:49.130Z,0.60
2023-08-29T05:24:36.891Z,0.80
2023-08-29T05:27:24.411Z,0.97
2023-08-29T05:30:12.313Z,0.90
2023-08-29T05:33:00.328Z,0.73
2023-08-29T05:35:47.897Z,0.80
2023-08-29T05:38:35.384Z,0.77
2023-08-29T05:41:23.074Z,0.70
2023-08-29T05:44:10.569Z,0.57
2023-08-29T05:46:58.063Z,0.70
2023-08-29T05:49:45.829Z,0.60
2023-08-29T05:52:33.387Z,0.87
2023-08-29T05:55:20.934Z,0.70
2023-08-29T05:58:08.905Z,0.90
2023-08-29T06:00:56.861Z,0.93
2023-08-29T06:03:44.673Z,1.23
2023-08-29T06:06:33.126Z,0.63
2023-08-29T06:09:20.761Z,0.60
2023-08-29T06:12:08.689Z,0.70
2023-08-29T06:14:56.275Z,1.00
2023-08-29T06:17:43.866Z,0.67
2023-08-29T06:20:32.924Z,0.80
2023-08-29T06:23:20.490Z,0.70
2023-08-29T06:26:08.122Z,0.60
2023-08-29T06:28:55.604Z,0.87
2023-08-29T06:31:43.244Z,0.50
2023-08-29T06:34:30.750Z,0.60
2023-08-29T06:37:18.264Z,0.80
2023-08-29T06:40:07.165Z,0.80
2023-08-29T06:42:54.716Z,0.60
2023-08-29T06:45:42.333Z,0.80
2023-08-29T06:48:29.817Z,0.80
2023-08-29T06:51:17.393Z,0.80
2023-08-29T06:54:05.226Z,0.90
2023-08-29T06:56:52.727Z,0.63
2023-08-29T06:59:40.843Z,0.80
2023-08-29T07:02:28.452Z,0.70
2023-08-29T07:05:16.211Z,0.57
2023-08-29T07:08:05.581Z,0.70
2023-08-29T07:10:53.654Z,0.63
2023-08-29T07:13:41.151Z,0.67
2023-08-29T07:16:28.724Z,0.70
2023-08-29T07:19:16.259Z,0.70
2023-08-29T07:22:09.676Z,0.80
2023-08-29T07:25:09.449Z,0.73
2023-08-29T07:27:56.914Z,0.90
2023-08-29T07:30:51.437Z,0.70
2023-08-29T07:33:39.434Z,0.93
2023-08-29T07:36:27.022Z,0.70
2023-08-29T07:39:16.074Z,0.80
2023-08-29T07:42:04.529Z,0.60
2023-08-29T07:44:52.290Z,0.77
2023-08-29T07:47:40.256Z,0.70
2023-08-29T07:50:29.019Z,0.80
2023-08-29T07:53:16.561Z,0.70
2023-08-29T07:56:04.532Z,0.80
2023-08-29T07:58:52.030Z,0.80
2023-08-29T08:01:39.589Z,0.67
2023-08-29T08:04:27.248Z,0.80
2023-08-29T08:07:14.836Z,0.90
2023-08-29T08:10:02.356Z,0.70
2023-08-29T08:12:50.584Z,0.70
2023-08-29T08:15:38.082Z,0.63
2023-08-29T08:18:25.675Z,0.70
2023-08-29T08:21:13.216Z,0.53
2023-08-29T08:24:00.864Z,0.60
2023-08-29T08:26:48.658Z,0.70
2023-08-29T08:29:36.825Z,0.50
2023-08-29T08:32:27.825Z,0.57
2023-08-29T08:35:15.344Z,0.53
2023-08-29T08:38:03.471Z,0.57
2023-08-29T08:40:55.638Z,0.50
2023-08-29T08:43:44.265Z,0.50
2023-08-29T08:46:33.245Z,0.50
2023-08-29T08:49:21.607Z,0.60
2023-08-29T08:52:11.677Z,0.50
2023-08-29T08:54:59.228Z,0.50
2023-08-29T08:57:47.942Z,0.50
2023-08-29T09:00:35.607Z,0.60
2023-08-29T09:03:23.376Z,0.60
2023-08-29T09:06:13.947Z,0.90
2023-08-29T09:09:25.749Z,0.73
2023-08-29T09:12:17.695Z,0.80
2023-08-29T09:15:06.306Z,0.80
2023-08-29T09:17:55.553Z,0.67
2023-08-29T09:20:46.070Z,0.70
2023-08-29T09:23:39.375Z,0.70
2023-08-29T09:26:33.640Z,0.60
2023-08-29T09:29:22.537Z,0.50
2023-08-29T09:32:15.212Z,0.70
2023-08-29T09:35:06.808Z,0.60
2023-08-29T09:37:56.558Z,0.47
2023-08-29T09:40:53.036Z,0.50
2023-08-29T09:43:51.865Z,0.60
2023-08-29T09:46:45.758Z,0.50
2023-08-29T09:49:48.765Z,0.60
2023-08-29T09:52:37.472Z,0.60
2023-08-29T09:55:27.255Z,0.60
2023-08-29T09:58:17.221Z,0.63
2023-08-29T10:01:09.713Z,0.70
2023-08-29T10:04:01.826Z,0.70
2023-08-29T10:06:52.572Z,0.80
2023-08-29T10:09:40.819Z,1.10
2023-08-29T10:12:29.809Z,0.90
2023-08-29T10:15:19.458Z,0.90
2023-08-29T10:18:09.138Z,1.00
2023-08-29T10:21:03.329Z,1.07
2023-08-29T10:23:53.909Z,1.10
2023-08-29T10:26:43.739Z,1.00
2023-08-29T10:29:34.959Z,0.90
2023-08-29T10:32:27.819Z,0.90
2023-08-29T10:35:20.470Z,1.00
2023-08-29T10:38:15.768Z,0.90
2023-08-29T10:41:12.275Z,1.20
2023-08-29T10:44:26.034Z,0.90
2023-08-29T10:47:33.466Z,1.00
2023-08-29T10:50:27.152Z,0.90
2023-08-29T10:53:23.273Z,0.80
2023-08-29T10:56:11.226Z,0.90
2023-08-29T10:58:59.636Z,0.90
2023-08-29T11:01:47.134Z,0.80
2023-08-29T11:04:45.540Z,0.90
2023-08-29T11:07:42.686Z,1.00
2023-08-29T11:10:30.203Z,0.80
2023-08-29T11:13:18.126Z,1.00
2023-08-29T11:16:07.231Z,0.70
2023-08-29T11:19:13.540Z,0.90
2023-08-29T11:22:01.195Z,0.73
2023-08-29T11:24:53.260Z,0.60
2023-08-29T11:27:41.918Z,0.67
2023-08-29T11:30:42.356Z,0.70
2023-08-29T11:33:37.278Z,0.70
2023-08-29T11:36:33.109Z,0.73
2023-08-29T11:39:23.697Z,0.80
2023-08-29T11:42:11.841Z,0.90
2023-08-29T11:45:46.694Z,0.90
2023-08-29T11:48:28.015Z,1.77
2023-08-29T11:51:16.945Z,0.83
2023-08-29T11:54:05.318Z,0.90
2023-08-29T11:56:56.894Z,1.10
2023-08-29T11:59:47.286Z,1.00
2023-08-29T12:02:35.018Z,1.27
2023-08-29T12:05:22.621Z,1.30
2023-08-29T12:08:10.257Z,1.40
2023-08-29T12:10:57.837Z,1.10
2023-08-29T12:14:11.777Z,1.70
2023-08-29T12:16:59.328Z,1.10
2023-08-29T12:19:50.056Z,0.93
2023-08-29T12:22:39.922Z,1.10
2023-08-29T12:25:28.356Z,0.90
2023-08-29T12:28:15.943Z,0.90
2023-08-29T12:31:03.560Z,1.00
2023-08-29T12:33:51.247Z,0.90
2023-08-29T12:36:38.964Z,0.80
2023-08-29T12:39:26.480Z,0.83
2023-08-29T12:42:14.653Z,1.00
2023-08-29T12:45:02.228Z,0.87
2023-08-29T12:47:52.246Z,0.82
2023-08-29T12:50:39.999Z,0.97
2023-08-29T12:53:28.508Z,1.03
2023-08-29T12:56:16.883Z,0.80
2023-08-29T12:59:04.428Z,1.00
2023-08-29T13:01:51.972Z,1.20
2023-08-29T13:04:39.531Z,0.90
2023-08-29T13:07:27.079Z,1.10
2023-08-29T13:10:14.821Z,1.17
2023-08-29T13:13:02.713Z,1.00
2023-08-29T13:15:51.810Z,1.10
2023-08-29T13:18:39.522Z,0.93
2023-08-29T13:21:27.106Z,1.05
2023-08-29T13:24:14.672Z,1.00
2023-08-29T13:27:02.200Z,0.80
2023-08-29T13:29:49.697Z,1.10
2023-08-29T13:32:37.207Z,0.90
2023-08-29T13:35:25.204Z,0.90
2023-08-29T13:38:12.734Z,0.80
2023-08-29T13:41:00.293Z,0.80
2023-08-29T13:43:47.847Z,0.90
2023-08-29T13:46:35.681Z,0.90
2023-08-29T13:49:23.185Z,0.95
2023-08-29T13:52:10.731Z,0.87
2023-08-29T13:54:58.344Z,0.83
2023-08-29T13:57:46.061Z,0.97
2023-08-29T14:00:33.571Z,0.90
2023-08-29T14:03:33.316Z,0.90
2023-08-29T14:06:21.106Z,0.80
2023-08-29T14:09:08.597Z,1.00
2023-08-29T14:11:56.189Z,0.90
2023-08-29T14:14:44.347Z,1.07
2023-08-29T14:17:32.103Z,0.83
2023-08-29T14:20:19.676Z,1.20
2023-08-29T14:23:07.141Z,0.90
2023-08-29T14:25:55.275Z,1.00
2023-08-29T14:28:42.846Z,1.20
2023-08-29T14:31:33.369Z,1.10
2023-08-29T14:34:20.944Z,0.85
2023-08-29T14:37:08.641Z,0.87
2023-08-29T14:39:56.169Z,0.80
2023-08-29T14:42:43.769Z,0.77
2023-08-29T14:45:31.497Z,0.73
2023-08-29T14:48:18.939Z,0.80
2023-08-29T14:51:07.708Z,0.80
2023-08-29T14:53:55.185Z,0.77
2023-08-29T14:56:42.893Z,0.80
2023-08-29T14:59:30.367Z,1.00
2023-08-29T15:02:17.965Z,0.90
2023-08-29T15:05:06.003Z,1.20
2023-08-29T15:07:53.547Z,0.90
2023-08-29T15:10:41.048Z,0.93
2023-08-29T15:13:29.390Z,1.00
2023-08-29T15:16:17.120Z,0.80
2023-08-29T15:19:04.923Z,1.10
2023-08-29T15:21:52.468Z,0.90
2023-08-29T15:24:39.964Z,0.87
2023-08-29T15:27:27.544Z,0.77
2023-08-29T15:30:15.108Z,0.90
2023-08-29T15:33:02.760Z,0.83
2023-08-29T15:35:50.284Z,0.90
2023-08-29T15:38:40.612Z,0.70
2023-08-29T15:41:28.210Z,0.60
2023-08-29T15:44:15.708Z,0.60
2023-08-29T15:47:03.474Z,0.97
2023-08-29T15:49:50.989Z,0.67
2023-08-29T15:52:38.691Z,0.80
2023-08-29T15:55:26.200Z,0.53
2023-08-29T15:58:15.543Z,0.70
2023-08-29T16:01:11.628Z,0.80
2023-08-29T16:03:59.270Z,0.93
2023-08-29T16:06:46.840Z,0.90
2023-08-29T16:09:34.515Z,0.77
2023-08-29T16:12:22.069Z,1.10
2023-08-29T16:15:10.936Z,0.80
2023-08-29T16:17:58.591Z,0.90
2023-08-29T16:20:46.134Z,0.90
2023-08-29T16:23:33.855Z,1.00
2023-08-29T16:26:22.619Z,0.80
2023-08-29T16:29:12.433Z,0.80
2023-08-29T16:32:00.539Z,0.80
2023-08-29T16:34:48.065Z,0.70
2023-08-29T16:37:41.145Z,0.70
2023-08-29T16:40:30.847Z,0.80
2023-08-29T16:43:18.356Z,0.70
2023-08-29T16:46:05.898Z,0.90
2023-08-29T16:48:53.480Z,0.90
2023-08-29T16:51:41.666Z,0.70
2023-08-29T16:54:29.180Z,0.70
2023-08-29T16:57:18.337Z,0.80
2023-08-29T17:00:11.683Z,0.87
2023-08-29T17:02:59.876Z,1.00
2023-08-29T17:05:47.516Z,0.90
2023-08-29T17:08:35.098Z,0.80
2023-08-29T17:11:24.108Z,1.20
2023-08-29T17:14:11.668Z,0.70
2023-08-29T17:16:59.295Z,0.90
2023-08-29T17:19:47.446Z,0.77
2023-08-29T17:22:35.018Z,0.80
2023-08-29T17:25:22.542Z,0.93
2023-08-29T17:28:15.379Z,1.00
2023-08-29T17:31:02.920Z,1.10
2023-08-29T17:33:50.527Z,0.80
2023-08-29T17:36:38.057Z,0.70
2023-08-29T17:39:25.655Z,0.77
2023-08-29T17:42:13.164Z,0.60
2023-08-29T17:45:00.817Z,0.60
2023-08-29T17:47:48.456Z,0.63
2023-08-29T17:50:36.007Z,0.70
2023-08-29T17:53:23.568Z,0.70
2023-08-29T17:56:11.172Z,0.70
2023-08-29T17:58:59.560Z,0.70
2023-08-29T18:01:47.166Z,0.70
2023-08-29T18:04:34.743Z,0.70
2023-08-29T18:07:22.431Z,0.50
2023-08-29T18:10:14.466Z,0.50
2023-08-29T18:13:02.032Z,1.00
2023-08-29T18:15:52.042Z,0.60
2023-08-29T18:18:39.972Z,0.60
2023-08-29T18:21:27.413Z,0.90
2023-08-29T18:24:14.990Z,0.70
2023-08-29T18:27:02.966Z,0.70
2023-08-29T18:29:50.740Z,0.63
2023-08-29T18:32:38.253Z,0.40
2023-08-29T18:35:25.887Z,0.70
2023-08-29T18:38:13.533Z,0.57
2023-08-29T18:41:01.004Z,0.70
2023-08-29T18:43:49.828Z,0.60
2023-08-29T18:46:37.439Z,0.73
2023-08-29T18:49:25.381Z,0.60
2023-08-29T18:52:13.552Z,0.80
2023-08-29T18:55:01.109Z,0.60
2023-08-29T18:57:48.625Z,0.53
2023-08-29T19:00:36.150Z,0.80
2023-08-29T19:03:23.662Z,0.60
2023-08-29T19:06:15.048Z,0.80
2023-08-29T19:09:03.128Z,0.70
2023-08-29T19:11:51.216Z,0.70
2023-08-29T19:14:38.899Z,1.10
2023-08-29T19:17:27.074Z,1.10
2023-08-29T19:20:14.630Z,0.73
2023-08-29T19:23:02.197Z,1.10
2023-08-29T19:25:50.123Z,0.90
2023-08-29T19:28:37.585Z,0.80
2023-08-29T19:31:25.124Z,0.70
2023-08-29T19:34:12.685Z,0.70
2023-08-29T19:37:00.177Z,0.70
2023-08-29T19:39:47.723Z,0.70
2023-08-29T19:42:35.218Z,0.90
2023-08-29T19:45:23.046Z,0.90
2023-08-29T19:48:10.983Z,1.20
2023-08-29T19:50:59.464Z,0.80
2023-08-29T19:53:51.675Z,0.70
2023-08-29T19:56:39.217Z,0.77
2023-08-29T19:59:26.705Z,0.80
2023-08-29T20:02:14.642Z,0.83
2023-08-29T20:05:05.117Z,0.70
2023-08-29T20:07:52.800Z,0.90
2023-08-29T20:10:41.243Z,0.87
2023-08-29T20:13:28.719Z,0.90
2023-08-29T20:16:16.321Z,0.57
2023-08-29T20:19:03.825Z,0.70
2023-08-29T20:21:52.591Z,1.17
2023-08-29T20:24:41.178Z,0.93
2023-08-29T20:27:28.679Z,0.97
2023-08-29T20:30:17.254Z,1.20
2023-08-29T20:33:06.997Z,0.80
2023-08-29T20:35:54.550Z,1.17
2023-08-29T20:38:42.941Z,1.37
2023-08-29T20:41:30.416Z,1.13
2023-08-29T20:44:17.942Z,0.87
2023-08-29T20:47:05.654Z,1.00
2023-08-29T20:49:53.149Z,0.83
2023-08-29T20:52:40.859Z,0.90
2023-08-29T20:55:28.427Z,0.80
2023-08-29T20:58:15.914Z,0.90
2023-08-29T21:01:04.683Z,0.80
2023-08-29T21:03:52.902Z,1.10
2023-08-29T21:06:40.514Z,1.00
2023-08-29T21:09:28.116Z,0.80
2023-08-29T21:12:17.228Z,0.90
2023-08-29T21:15:05.703Z,0.77
2023-08-29T21:17:53.230Z,1.00
2023-08-29T21:21:08.820Z,0.97
2023-08-29T21:23:56.359Z,0.80
2023-08-29T21:26:44.374Z,0.70
2023-08-29T21:29:31.912Z,0.80
2023-08-29T21:32:19.360Z,1.30
2023-08-29T21:35:07.776Z,1.10
2023-08-29T21:37:55.299Z,1.33
2023-08-29T21:40:44.771Z,0.90
2023-08-29T21:43:32.835Z,1.00
2023-08-29T21:46:20.402Z,1.10
2023-08-29T21:49:08.099Z,1.27
2023-08-29T21:51:55.559Z,1.40
2023-08-29T21:54:43.051Z,0.97
2023-08-29T21:57:30.534Z,1.00
2023-08-29T22:00:18.548Z,1.17
2023-08-29T22:03:07.106Z,1.00
2023-08-29T22:05:54.780Z,0.93
2023-08-29T22:08:42.355Z,1.30
2023-08-29T22:11:30.218Z,1.20
2023-08-29T22:14:17.730Z,1.43
2023-08-29T22:17:05.366Z,1.70
2023-08-29T22:19:52.901Z,1.53
2023-08-29T22:22:41.827Z,1.20
2023-08-29T22:25:29.614Z,1.23
2023-08-29T22:28:17.080Z,2.13
2023-08-29T22:31:05.000Z,1.60
2023-08-29T22:33:52.492Z,1.30
2023-08-29T22:36:39.972Z,1.50
2023-08-29T22:39:27.550Z,1.03
2023-08-29T22:42:15.735Z,1.30
2023-08-29T22:45:04.475Z,1.70
2023-08-29T22:47:52.089Z,1.33
2023-08-29T22:50:39.669Z,1.17
2023-08-29T22:53:27.331Z,1.40
2023-08-29T22:56:15.280Z,1.13
2023-08-29T22:59:02.804Z,1.50
2023-08-29T23:01:50.571Z,1.33
2023-08-29T23:04:38.021Z,1.00
2023-08-29T23:07:25.517Z,1.50
2023-08-29T23:10:14.651Z,1.00
2023-08-29T23:13:03.584Z,1.20
2023-08-29T23:15:51.569Z,1.13
2023-08-29T23:18:43.463Z,1.17
2023-08-29T23:21:30.979Z,1.10
2023-08-29T23:24:18.608Z,1.10
2023-08-29T23:27:07.459Z,1.40
2023-08-29T23:29:55.085Z,1.13
2023-08-29T23:32:44.493Z,0.97
2023-08-29T23:35:32.081Z,1.43
2023-08-29T23:38:20.701Z,1.00
2023-08-29T23:41:08.214Z,1.17
2023-08-29T23:43:56.561Z,1.30
2023-08-29T23:46:44.105Z,1.53
2023-08-29T23:49:31.699Z,1.40
2023-08-29T23:52:19.335Z,1.27
2023-08-29T23:55:07.901Z,1.40
2023-08-29T23:57:55.374Z,0.93
